Time;durP1;ratioP1;P1;durP2;ratioP2;P2;SDS_P1;SDS_P2;PMS_P1;PMS_P2;Temp;Humidity;BMP_temperature;BMP_pressure;BME280_temperature;BME280_humidity;BME280_pressure;Samples;Min_cycle;Max_cycle;Signal;HPM_P1;HPM_P2
2022/06/19 00:01:00;;;;;;;9.15;4.38;;;;;;;21.14;68.25;98464.97;5115402;27;20044;-75
2022/06/19 00:03:30;;;;;;;13.75;3.08;;;;;;;21.13;69.07;98468.81;5115535;28;20491;-75
2022/06/19 00:05:56;;;;;;;;;;;;;;;21.08;69.30;98473.50;5116303;28;20047;-75
2022/06/19 00:08:23;;;;;;;12.57;3.65;;;;;;;20.99;69.31;98468.50;5115858;28;19919;-75
2022/06/19 00:10:50;;;;;;;19.33;3.47;;;;;;;20.91;68.70;98446.06;5115659;28;20096;-75
2022/06/19 00:13:16;;;;;;;10.95;3.00;;;;;;;21.19;68.52;98456.66;5115534;28;20048;-75
2022/06/19 00:15:45;;;;;;;9.77;2.53;;;;;;;21.17;68.74;98447.81;5114100;28;20039;-75
2022/06/19 00:18:11;;;;;;;16.05;2.80;;;;;;;20.98;68.62;98430.09;5115579;28;20052;-75
2022/06/19 00:20:38;;;;;;;8.68;2.63;;;;;;;21.04;69.31;98442.81;5115698;27;20062;-75
2022/06/19 00:23:04;;;;;;;17.90;3.40;;;;;;;20.88;69.03;98432.81;5115339;28;20047;-75
2022/06/19 00:25:31;;;;;;;14.60;3.53;;;;;;;20.88;67.57;98425.38;5115382;28;20387;-75
2022/06/19 00:27:57;;;;;;;16.90;3.20;;;;;;;21.01;66.13;98426.78;5115497;28;20054;-75
2022/06/19 00:30:24;;;;;;;9.27;3.38;;;;;;;20.92;66.09;98398.84;5114021;28;20121;-75
2022/06/19 00:32:52;;;;;;;10.50;2.63;;;;;;;21.06;65.59;98407.44;5115099;28;20050;-75
2022/06/19 00:35:19;;;;;;;12.80;3.22;;;;;;;20.93;65.00;98372.06;5114384;27;20044;-75
2022/06/19 00:37:47;;;;;;;8.43;2.25;;;;;;;21.12;65.32;98380.66;5115247;28;20499;-75
2022/06/19 00:40:14;;;;;;;8.52;2.50;;;;;;;21.14;65.07;98372.94;5113558;28;20104;-75
2022/06/19 00:42:40;;;;;;;11.88;2.22;;;;;;;21.21;65.50;98390.91;5111383;27;20048;-75
2022/06/19 00:45:08;;;;;;;7.97;2.30;;;;;;;21.21;65.53;98395.59;5113683;27;20047;-75
2022/06/19 00:47:38;;;;;;;13.65;2.65;;;;;;;21.26;66.29;98400.28;5114853;28;20047;-75
2022/06/19 00:50:22;;;;;;;11.65;3.17;;;;;;;21.13;66.41;98388.66;5113860;27;20058;-75
2022/06/19 00:52:49;;;;;;;11.20;2.38;;;;;;;21.26;66.54;98395.63;5114898;28;20058;-75
2022/06/19 00:55:20;;;;;;;7.10;2.83;;;;;;;21.26;66.51;98400.28;5114837;28;20487;-74
2022/06/19 00:57:50;;;;;;;14.10;3.17;;;;;;;21.07;67.37;98380.66;5114960;28;20644;-75
2022/06/19 01:00:24;;;;;;;10.95;2.78;;;;;;;21.06;67.95;98393.63;5114861;28;20059;-75
2022/06/19 01:02:53;;;;;;;12.13;4.07;;;;;;;20.88;68.06;98375.63;5114203;28;20059;-75
2022/06/19 01:05:23;;;;;;;6.82;2.20;;;;;;;20.93;67.73;98389.47;5116371;27;20491;-75
2022/06/19 01:07:50;;;;;;;14.90;4.43;;;;;;;20.79;68.83;98389.13;5114678;28;20062;-75
2022/06/19 01:10:17;;;;;;;10.85;2.40;;;;;;;20.75;69.27;98378.91;5114619;28;20051;-75
2022/06/19 01:12:46;;;;;;;14.00;2.45;;;;;;;20.90;69.05;98394.72;5114302;28;20056;-76
2022/06/19 01:15:18;;;;;;;8.65;2.20;;;;;;;20.73;69.78;98381.09;5114682;28;20454;-75
2022/06/19 01:17:47;;;;;;;12.43;2.38;;;;;;;20.91;70.68;98383.38;5112958;28;20066;-75
2022/06/19 01:20:15;;;;;;;16.33;3.00;;;;;;;20.79;69.39;98377.25;5111876;27;20050;-75
2022/06/19 01:22:48;;;;;;;8.23;2.20;;;;;;;20.64;70.07;98364.19;5113898;28;20062;-75
2022/06/19 01:25:18;;;;;;;11.23;2.53;;;;;;;20.77;67.54;98368.41;5114380;28;20043;-75
2022/06/19 01:30:45;;;;;;;13.80;3.25;;;;;;;20.82;65.58;98357.38;5076272;28;20040;-75
2022/06/19 01:33:15;;;;;;;10.20;2.55;;;;;;;20.86;65.71;98364.00;5114294;28;20039;-75
2022/06/19 01:35:44;;;;;;;6.97;2.28;;;;;;;20.82;65.50;98347.16;5114246;28;20043;-75
2022/06/19 01:38:14;;;;;;;13.07;2.53;;;;;;;20.73;67.92;98347.94;5114297;28;20410;-75
2022/06/19 01:40:45;;;;;;;9.70;2.45;;;;;;;20.48;70.42;98342.03;5114143;28;20055;-75
2022/06/19 01:43:12;;;;;;;10.05;2.30;;;;;;;20.62;70.08;98356.16;5114125;28;20048;-75
2022/06/19 01:45:42;;;;;;;8.68;2.42;;;;;;;20.39;71.57;98349.19;5112572;27;20051;-75
2022/06/19 01:48:08;;;;;;;;;;;;;;;20.41;72.09;98354.44;5114443;28;20051;-74
2022/06/19 01:50:36;;;;;;;9.15;2.70;;;;;;;20.32;72.81;98346.69;5113914;28;19919;-75
2022/06/19 01:53:08;;;;;;;12.23;2.72;;;;;;;20.44;72.07;98346.44;5113787;28;20056;-75
2022/06/19 01:55:35;;;;;;;5.57;2.13;;;;;;;20.27;72.86;98332.00;5113968;28;20048;-75
2022/06/19 01:58:04;;;;;;;15.52;3.17;;;;;;;20.22;73.50;98334.72;5113791;28;20059;-74
2022/06/19 02:00:34;;;;;;;5.82;2.60;;;;;;;20.14;74.52;98336.94;5112557;28;20142;-75
2022/06/19 02:03:05;;;;;;;12.35;2.60;;;;;;;20.07;74.52;98328.06;5113493;28;20499;-74
2022/06/19 02:05:32;;;;;;;8.80;2.63;;;;;;;19.90;75.33;98316.34;5113938;28;20596;-75
2022/06/19 02:07:59;;;;;;;13.88;2.95;;;;;;;19.93;74.86;98324.09;5113841;28;20047;-75
2022/06/19 02:10:25;;;;;;;7.90;2.42;;;;;;;19.94;74.36;98325.75;5113921;28;20052;-75
2022/06/19 02:12:52;;;;;;;12.38;3.05;;;;;;;19.81;74.56;98318.78;5113596;28;20044;-75
2022/06/19 02:15:21;;;;;;;12.65;2.85;;;;;;;19.93;74.05;98322.19;5112431;28;20044;-75
2022/06/19 02:17:51;;;;;;;10.68;2.53;;;;;;;19.96;76.24;98329.94;5113686;28;20051;-75
2022/06/19 02:20:19;;;;;;;12.93;3.05;;;;;;;19.71;78.36;98314.00;5114000;28;20047;-74
2022/06/19 02:22:46;;;;;;;11.80;3.05;;;;;;;19.76;78.12;98318.72;5113508;28;20368;-74
2022/06/19 02:25:13;;;;;;;11.40;2.95;;;;;;;19.75;77.11;98287.56;5113897;28;20039;-75
2022/06/19 02:27:40;;;;;;;11.65;2.40;;;;;;;19.85;77.91;98317.16;5112784;28;20052;-75
2022/06/19 02:30:10;;;;;;;13.00;2.97;;;;;;;19.56;78.82;98309.22;5113419;28;20059;-75
2022/06/19 02:32:43;;;;;;;17.27;2.85;;;;;;;19.39;78.88;98316.78;5113214;28;20058;-75
2022/06/19 02:35:14;;;;;;;13.88;2.78;;;;;;;19.37;78.41;98327.25;5113619;28;20048;-75
2022/06/19 02:37:44;;;;;;;11.27;2.65;;;;;;;19.54;78.33;98340.88;5113507;28;20508;-75
2022/06/19 02:40:21;;;;;;;8.20;2.67;;;;;;;19.36;78.49;98312.66;5113340;28;20058;-75
2022/06/19 02:42:49;;;;;;;12.23;3.17;;;;;;;19.31;80.03;98315.34;5113081;28;20067;-75
2022/06/19 02:45:18;;;;;;;11.85;2.63;;;;;;;19.26;80.31;98335.44;5113227;28;20052;-75
2022/06/19 02:47:47;;;;;;;10.23;2.72;;;;;;;19.35;79.51;98340.47;5113467;28;20055;-75
2022/06/19 02:50:16;;;;;;;8.75;2.70;;;;;;;19.40;79.66;98354.28;5113447;28;20052;-75
2022/06/19 02:52:42;;;;;;;7.88;2.75;;;;;;;19.33;80.65;98349.00;5113070;28;20047;-75
2022/06/19 02:55:10;;;;;;;13.93;3.08;;;;;;;19.20;81.02;98319.13;5113617;28;20040;-75
2022/06/19 02:57:37;;;;;;;11.40;2.92;;;;;;;19.21;81.25;98340.06;5112123;28;20043;-75
2022/06/19 03:00:06;;;;;;;15.52;3.45;;;;;;;19.09;81.02;98337.50;5113327;28;20059;-75
2022/06/19 03:02:32;;;;;;;11.48;3.13;;;;;;;18.98;82.69;98338.47;5113010;28;20054;-75
2022/06/19 03:05:04;;;;;;;8.88;2.67;;;;;;;18.85;85.11;98318.53;5113333;28;20046;-74
2022/06/19 03:07:30;;;;;;;9.82;2.75;;;;;;;18.71;86.88;98331.00;5113256;28;20051;-74
2022/06/19 03:09:58;;;;;;;10.63;2.95;;;;;;;18.54;88.89;98311.81;5115673;28;20153;-75
2022/06/19 03:12:25;;;;;;;13.68;3.20;;;;;;;18.62;84.51;98322.34;5115525;27;20047;-75
2022/06/19 03:14:51;;;;;;;9.75;3.10;;;;;;;18.66;86.18;98322.69;5116778;28;20058;-75
2022/06/19 03:17:20;;;;;;;12.80;3.05;;;;;;;18.74;85.75;98325.81;5116769;28;20054;-75
2022/06/19 03:19:47;;;;;;;21.23;3.03;;;;;;;18.82;81.76;98319.00;5116819;28;20387;-75
2022/06/19 03:22:14;;;;;;;11.05;2.88;;;;;;;19.00;79.10;98311.47;5116494;28;20406;-75
2022/06/19 03:24:41;;;;;;;14.23;2.42;;;;;;;18.94;78.04;98280.34;5115319;28;20060;-75
2022/06/19 03:27:08;;;;;;;12.80;2.80;;;;;;;19.17;78.16;98312.22;5116512;28;20052;-75
2022/06/19 03:29:35;;;;;;;10.05;2.75;;;;;;;19.29;76.44;98312.03;5116458;28;20051;-75
2022/06/19 03:32:01;;;;;;;10.50;2.88;;;;;;;19.38;75.10;98302.19;5116562;28;20059;-75
2022/06/19 03:34:28;;;;;;;7.63;2.80;;;;;;;19.37;75.31;98308.78;5116374;28;20134;-75
2022/06/19 03:36:55;;;;;;;9.20;2.60;;;;;;;19.44;75.42;98303.06;5116410;28;20483;-75
2022/06/19 03:39:24;;;;;;;9.10;2.78;;;;;;;19.34;76.31;98297.47;5114853;28;20131;-75
2022/06/19 03:41:50;;;;;;;5.15;2.13;;;;;;;19.39;76.46;98309.38;5116368;28;20079;-74
2022/06/19 03:44:17;;;;;;;11.95;2.38;;;;;;;19.49;76.53;98300.34;5115997;28;20491;-75
2022/06/19 03:46:43;;;;;;;12.98;2.78;;;;;;;19.58;76.69;98303.44;5116320;28;20395;-74
2022/06/19 03:49:10;;;;;;;11.40;2.53;;;;;;;19.58;76.20;98306.19;5116251;28;20051;-75
2022/06/19 03:51:37;;;;;;;9.63;2.20;;;;;;;19.46;77.90;98300.88;5116155;28;20055;-75
2022/06/19 03:54:07;;;;;;;12.65;2.58;;;;;;;19.25;79.59;98286.09;5115439;27;20048;-75
2022/06/19 03:56:35;;;;;;;13.52;3.03;;;;;;;19.21;78.93;98283.03;5116198;28;20048;-75
2022/06/19 03:59:02;;;;;;;5.93;1.92;;;;;;;19.29;78.68;98301.00;5115786;28;20437;-74
2022/06/19 04:01:32;;;;;;;11.30;2.30;;;;;;;19.50;77.84;98303.94;5115898;28;20048;-75
2022/06/19 04:03:59;;;;;;;13.82;2.40;;;;;;;19.55;77.23;98296.50;5115686;28;20044;-75
2022/06/19 04:06:28;;;;;;;5.22;2.40;;;;;;;19.67;76.56;98301.03;5115673;28;20051;-75
2022/06/19 04:08:56;;;;;;;8.40;3.28;;;;;;;19.67;75.81;98281.72;5115399;28;20499;-75
2022/06/19 04:11:24;;;;;;;11.05;2.42;;;;;;;19.58;76.20;98265.66;5115738;28;20047;-75
2022/06/19 04:13:52;;;;;;;11.10;2.42;;;;;;;19.62;77.14;98265.97;5115598;28;20403;-75
2022/06/19 04:16:22;;;;;;;12.63;2.10;;;;;;;19.82;75.58;98281.03;5116015;28;20078;-75
2022/06/19 04:18:50;;;;;;;13.75;2.58;;;;;;;20.02;74.88;98294.09;5115588;27;20475;-75
2022/06/19 04:21:18;;;;;;;10.20;2.33;;;;;;;20.01;76.48;98289.66;5114086;28;20059;-75
2022/06/19 04:23:46;;;;;;;9.30;2.85;;;;;;;19.94;77.06;98289.91;5114216;28;20133;-75
2022/06/19 04:26:15;;;;;;;11.90;2.55;;;;;;;20.03;77.16;98301.28;5115353;28;20380;-75
2022/06/19 04:28:42;;;;;;;13.73;3.25;;;;;;;20.10;77.44;98310.13;5115467;28;20052;-75
2022/06/19 04:31:10;;;;;;;9.30;2.47;;;;;;;20.12;77.18;98306.00;5115627;28;20503;-75
2022/06/19 04:33:38;;;;;;;12.75;3.20;;;;;;;20.27;76.88;98323.75;5114988;28;20381;-75
2022/06/19 04:36:06;;;;;;;12.93;2.88;;;;;;;20.34;77.10;98316.03;5115374;27;20062;-75
2022/06/19 04:38:33;;;;;;;9.55;3.10;;;;;;;20.53;76.22;98319.13;5114515;28;20052;-75
2022/06/19 04:40:59;;;;;;;10.38;2.50;;;;;;;20.54;76.82;98303.41;5115422;28;20057;-75
2022/06/19 04:43:26;;;;;;;10.18;3.10;;;;;;;20.64;75.36;98320.84;5114810;28;20051;-75
2022/06/19 04:45:52;;;;;;;8.30;2.63;;;;;;;20.74;74.76;98310.97;5115087;28;20100;-75
2022/06/19 04:48:20;;;;;;;13.90;2.85;;;;;;;20.92;75.25;98309.63;5115298;28;20055;-75
2022/06/19 04:50:47;;;;;;;13.80;3.10;;;;;;;20.97;74.10;98298.56;5113797;28;20415;-75
2022/06/19 04:53:13;;;;;;;15.98;2.53;;;;;;;21.06;74.45;98299.66;5114656;28;20047;-75
2022/06/19 04:55:40;;;;;;;8.88;2.55;;;;;;;21.11;74.26;98287.81;5114740;28;20048;-75
2022/06/19 04:58:07;;;;;;;20.73;3.80;;;;;;;21.48;70.40;98293.06;5114888;28;20071;-75
2022/06/19 05:00:33;;;;;;;11.52;3.47;;;;;;;21.98;68.21;98292.44;5114799;28;20048;-75
2022/06/19 05:03:00;;;;;;;11.85;3.08;;;;;;;22.51;66.41;98287.28;5114534;28;20058;-75
2022/06/19 05:05:28;;;;;;;11.98;2.78;;;;;;;23.09;65.00;98289.44;5113421;27;20472;-75
2022/06/19 05:07:54;;;;;;;12.70;2.92;;;;;;;23.52;60.25;98293.56;5114688;28;20044;-75
2022/06/19 05:10:21;;;;;;;7.85;2.08;;;;;;;23.61;57.06;98291.81;5114693;28;20410;-75
2022/06/19 05:12:48;;;;;;;8.73;2.15;;;;;;;23.92;57.69;98294.28;5114279;28;20452;-75
2022/06/19 05:15:15;;;;;;;7.43;2.33;;;;;;;24.16;55.29;98302.63;5114655;28;20047;-75
2022/06/19 05:17:41;;;;;;;19.25;3.42;;;;;;;24.65;53.93;98311.78;5114565;28;20055;-75
2022/06/19 05:20:08;;;;;;;18.20;3.47;;;;;;;24.88;53.36;98310.06;5113067;28;20433;-75
2022/06/19 05:22:36;;;;;;;11.48;2.65;;;;;;;25.27;51.24;98301.41;5114132;28;20051;-74
2022/06/19 05:25:04;;;;;;;15.25;2.78;;;;;;;25.55;50.08;98301.53;5114300;28;20396;-75
2022/06/19 05:27:31;;;;;;;8.82;1.98;;;;;;;25.78;50.21;98299.72;5114074;28;20461;-75
2022/06/19 05:29:58;;;;;;;9.93;2.70;;;;;;;26.01;48.35;98313.00;5114346;28;20044;-75
2022/06/19 05:32:26;;;;;;;8.25;2.00;;;;;;;26.08;48.88;98293.94;5112908;28;20054;-75
2022/06/19 05:34:53;;;;;;;11.13;2.30;;;;;;;26.25;49.10;98307.25;5113131;28;20052;-75
2022/06/19 05:37:19;;;;;;;12.00;2.92;;;;;;;26.28;48.26;98298.25;5113270;28;20066;-75
2022/06/19 05:39:47;;;;;;;11.57;2.60;;;;;;;26.65;47.31;98313.94;5112909;28;20054;-75
2022/06/19 05:42:13;;;;;;;11.45;2.60;;;;;;;26.55;46.36;98285.44;5113756;28;20055;-74
2022/06/19 05:44:40;;;;;;;10.38;2.55;;;;;;;26.75;47.37;98312.06;5113619;28;20066;-75
2022/06/19 05:47:07;;;;;;;10.18;3.03;;;;;;;26.73;47.69;98306.81;5112496;28;20039;-75
2022/06/19 05:49:35;;;;;;;10.68;2.45;;;;;;;26.76;47.48;98310.94;5113416;28;20046;-75
2022/06/19 05:52:03;;;;;;;8.37;2.50;;;;;;;26.83;46.85;98306.59;5113978;28;20063;-75
2022/06/19 05:54:30;;;;;;;10.73;2.65;;;;;;;27.25;45.69;98311.22;5113811;28;20384;-75
2022/06/19 05:56:58;;;;;;;19.33;3.42;;;;;;;27.35;47.24;98295.06;5113999;28;20051;-75
2022/06/19 05:59:26;;;;;;;20.83;2.92;;;;;;;27.40;46.30;98319.25;5113869;28;20525;-75
2022/06/19 06:01:52;;;;;;;9.82;2.67;;;;;;;27.30;46.04;98306.34;5113596;28;20059;-75
2022/06/19 06:04:19;;;;;;;14.13;2.95;;;;;;;27.43;46.34;98278.72;5113555;28;20491;-75
2022/06/19 06:06:45;;;;;;;8.68;2.67;;;;;;;27.60;46.33;98291.97;5113473;28;20047;-75
2022/06/19 06:09:14;;;;;;;10.45;2.83;;;;;;;27.96;44.89;98299.38;5113361;28;20044;-75
2022/06/19 06:11:41;;;;;;;12.18;2.45;;;;;;;27.87;45.40;98288.19;5113301;28;20075;-75
2022/06/19 06:14:09;;;;;;;17.42;3.55;;;;;;;27.98;45.38;98291.53;5111912;28;20047;-75
2022/06/19 06:16:35;;;;;;;22.17;3.45;;;;;;;28.25;46.34;98296.91;5113452;28;20043;-75
2022/06/19 06:19:02;;;;;;;15.02;2.83;;;;;;;28.14;46.29;98289.13;5113263;28;20056;-75
2022/06/19 06:21:29;;;;;;;18.08;2.40;;;;;;;28.23;44.45;98271.28;5113441;28;20052;-75
2022/06/19 06:23:55;;;;;;;17.83;2.47;;;;;;;28.55;43.91;98301.94;5113279;28;20055;-75
2022/06/19 06:26:24;;;;;;;11.60;3.15;;;;;;;28.63;44.25;98277.97;5113309;28;20051;-75
2022/06/19 06:28:52;;;;;;;10.05;2.58;;;;;;;28.38;44.28;98283.97;5112184;28;20043;-75
2022/06/19 06:31:21;;;;;;;15.52;4.35;;;;;;;28.43;43.73;98294.19;5093236;28;20056;-75
2022/06/19 06:33:48;;;;;;;8.75;2.78;;;;;;;28.93;43.49;98292.97;5092984;28;20048;-75
2022/06/19 06:36:15;;;;;;;12.85;2.88;;;;;;;28.81;43.73;98265.66;5093202;28;20048;-75
2022/06/19 06:38:41;;;;;;;9.00;2.78;;;;;;;29.04;43.47;98294.31;5092734;28;20052;-75
2022/06/19 06:41:09;;;;;;;16.40;3.15;;;;;;;29.09;43.41;98291.34;5093203;28;20503;-75
2022/06/19 06:43:36;;;;;;;13.65;3.03;;;;;;;29.29;43.53;98303.88;5101902;28;20048;-75
2022/06/19 06:46:07;;;;;;;15.27;3.55;;;;;;;29.47;42.33;98301.06;5117483;28;20157;-75
2022/06/19 06:48:35;;;;;;;13.23;2.78;;;;;;;29.35;41.87;98289.72;5117358;28;20047;-75
2022/06/19 06:51:06;;;;;;;11.68;2.90;;;;;;;29.65;42.78;98308.28;5117470;28;20047;-75
2022/06/19 06:53:32;;;;;;;18.13;3.03;;;;;;;29.80;42.81;98300.53;5116880;28;20419;-75
2022/06/19 06:55:59;;;;;;;19.15;3.78;;;;;;;30.07;39.67;98302.13;5117724;28;20051;-75
2022/06/19 06:58:25;;;;;;;16.35;3.88;;;;;;;30.22;41.00;98303.53;5115809;27;20043;-75
2022/06/19 07:00:52;;;;;;;19.33;4.53;;;;;;;30.42;41.20;98313.19;5116949;28;20059;-75
2022/06/19 07:03:18;;;;;;;15.77;3.40;;;;;;;30.39;40.33;98305.44;5117052;28;20052;-75
2022/06/19 07:05:46;;;;;;;12.43;2.97;;;;;;;30.09;40.42;98293.38;5117172;28;20079;-76
2022/06/19 07:08:13;;;;;;;14.90;2.75;;;;;;;30.29;40.80;98309.44;5117079;28;20475;-75
2022/06/19 07:10:39;;;;;;;20.40;4.38;;;;;;;30.14;41.38;98294.00;5117164;28;20521;-75
2022/06/19 07:13:06;;;;;;;8.77;2.50;;;;;;;30.46;41.26;98302.97;5115256;28;20048;-75
2022/06/19 07:15:33;;;;;;;15.63;3.05;;;;;;;30.44;40.86;98294.06;5116840;28;20043;-75
2022/06/19 07:17:59;;;;;;;16.52;3.30;;;;;;;30.76;40.43;98288.09;5116919;28;20101;-75
2022/06/19 07:20:26;;;;;;;13.18;2.90;;;;;;;30.95;41.45;98290.44;5116994;28;20067;-76
2022/06/19 07:22:54;;;;;;;19.95;3.65;;;;;;;30.97;40.78;98296.50;5116462;28;20054;-75
2022/06/19 07:25:22;;;;;;;12.60;2.88;;;;;;;31.29;41.19;98297.78;5117054;28;20079;-75
2022/06/19 07:27:49;;;;;;;18.48;3.38;;;;;;;31.03;40.37;98295.22;5116238;27;20140;-75
2022/06/19 07:30:20;;;;;;;11.57;2.90;;;;;;;31.24;40.20;98300.81;5116489;28;20054;-75
2022/06/19 07:32:46;;;;;;;17.67;4.25;;;;;;;31.45;40.45;98286.75;5116358;28;20077;-75
2022/06/19 07:35:13;;;;;;;16.45;2.90;;;;;;;31.79;39.86;98295.19;5116760;28;20039;-75
2022/06/19 07:37:39;;;;;;;13.60;4.57;;;;;;;31.99;39.77;98285.84;5116297;28;20039;-75
2022/06/19 07:40:08;;;;;;;21.15;3.55;;;;;;;31.67;40.08;98274.31;5114606;27;20379;-75
2022/06/19 07:42:35;;;;;;;12.57;3.53;;;;;;;31.33;39.93;98289.47;5116171;28;20088;-75
2022/06/19 07:45:02;;;;;;;11.60;2.50;;;;;;;31.59;40.10;98295.72;5116625;28;20059;-76
2022/06/19 07:50:13;;;;;;;14.38;3.45;;;;;;;31.05;39.81;98288.06;5116256;28;20145;-76
2022/06/19 07:52:42;;;;;;;12.38;2.80;;;;;;;30.63;41.22;98307.63;5116126;28;20063;-75
2022/06/19 07:55:13;;;;;;;11.95;2.90;;;;;;;30.46;41.79;98304.94;5116146;28;20439;-75
2022/06/19 07:57:40;;;;;;;22.10;4.35;;;;;;;30.70;42.93;98307.94;5115829;28;20043;-75
2022/06/19 08:00:08;;;;;;;15.20;3.50;;;;;;;31.21;43.17;98302.31;5115781;27;20077;-75
2022/06/19 08:02:35;;;;;;;11.02;2.78;;;;;;;31.62;41.20;98291.41;5115691;28;20131;-75
2022/06/19 08:05:01;;;;;;;17.52;3.80;;;;;;;31.83;40.42;98271.66;5116209;28;20134;-75
2022/06/19 08:07:28;;;;;;;15.13;2.95;;;;;;;32.26;38.31;98295.66;5115663;28;20089;-75
2022/06/19 08:09:55;;;;;;;11.73;3.03;;;;;;;32.08;37.16;98288.56;5115758;28;20055;-75
2022/06/19 08:12:23;;;;;;;14.90;2.90;;;;;;;32.34;38.73;98296.72;5115648;28;20039;-75
2022/06/19 08:14:49;;;;;;;17.25;3.45;;;;;;;32.00;38.48;98303.53;5113623;28;20054;-75
2022/06/19 08:17:16;;;;;;;12.98;3.80;;;;;;;32.24;38.27;98281.09;5115567;28;20062;-75
2022/06/19 08:19:43;;;;;;;14.55;2.95;;;;;;;32.40;37.98;98303.75;5115498;28;20059;-75
2022/06/19 08:22:09;;;;;;;12.00;3.38;;;;;;;32.47;37.09;98300.31;5115393;28;20063;-75
2022/06/19 08:24:35;;;;;;;13.20;5.03;;;;;;;32.64;37.65;98291.66;5115523;28;20055;-75
2022/06/19 08:27:02;;;;;;;14.18;3.80;;;;;;;32.66;37.72;98298.97;5115420;28;20047;-75
2022/06/19 08:29:31;;;;;;;11.45;3.78;;;;;;;32.56;36.88;98295.41;5114077;27;20086;-76
2022/06/19 08:31:57;;;;;;;12.18;3.00;;;;;;;32.66;37.50;98290.53;5115304;28;20122;-75
2022/06/19 08:34:26;;;;;;;15.52;3.70;;;;;;;32.81;38.40;98282.16;5115069;28;20054;-75
2022/06/19 08:36:52;;;;;;;14.27;4.07;;;;;;;32.63;36.45;98275.13;5115520;28;20105;-75
2022/06/19 08:39:20;;;;;;;20.70;4.70;;;;;;;32.82;36.00;98274.53;5114766;28;20047;-76
2022/06/19 08:42:07;;;;;;;14.40;3.83;;;;;;;33.10;36.26;98266.13;5113752;28;20047;-75
2022/06/19 08:45:06;;;;;;;21.85;4.00;;;;;;;33.64;36.79;98275.31;5115085;28;20048;-75
2022/06/19 08:47:45;;;;;;;19.20;4.78;;;;;;;33.63;34.52;98268.03;5104450;27;20043;-75
2022/06/19 08:50:24;;;;;;;17.73;4.82;;;;;;;33.42;34.32;98287.97;5115141;28;20047;-75
2022/06/19 08:53:07;;;;;;;12.88;3.80;;;;;;;33.01;35.32;98273.91;5114995;28;20051;-75
2022/06/19 08:55:42;;;;;;;16.17;4.80;;;;;;;32.93;34.22;98281.31;5114888;28;20059;-75
2022/06/19 08:58:20;;;;;;;15.50;3.80;;;;;;;33.20;37.09;98258.38;5112633;27;20487;-75
2022/06/19 09:00:52;;;;;;;10.48;3.55;;;;;;;33.24;34.53;98277.03;5114869;28;20048;-75
2022/06/19 09:03:26;;;;;;;12.07;4.13;;;;;;;33.40;34.07;98274.25;5114616;28;20048;-75
2022/06/19 09:05:59;;;;;;;14.13;4.47;;;;;;;33.30;33.19;98286.03;5114594;28;20055;-76
2022/06/19 09:08:54;;;;;;;16.83;4.20;;;;;;;33.29;33.42;98276.78;5113915;28;20043;-76
2022/06/19 09:11:43;;;;;;;14.13;4.47;;;;;;;33.29;35.06;98290.84;5113562;28;20047;-76
2022/06/19 09:14:23;;;;;;;16.88;4.53;;;;;;;33.36;33.80;98264.06;5114377;28;20055;-75
2022/06/19 09:16:58;;;;;;;17.10;4.10;;;;;;;33.50;34.34;98287.03;5114557;28;20044;-76
2022/06/19 09:19:43;;;;;;;14.55;4.22;;;;;;;33.33;33.67;98285.31;5114209;28;20506;-75
2022/06/19 09:22:26;;;;;;;15.07;4.28;;;;;;;33.50;33.31;98270.94;5114147;28;20051;-76
2022/06/19 09:25:06;;;;;;;10.27;4.65;;;;;;;33.56;34.02;98282.75;5113130;28;20059;-75
2022/06/19 09:27:43;;;;;;;14.77;4.50;;;;;;;33.84;33.78;98282.72;5114129;28;20487;-75
2022/06/19 09:30:14;;;;;;;16.70;4.75;;;;;;;33.86;33.97;98255.03;5114015;28;20051;-75
2022/06/19 09:32:52;;;;;;;13.18;4.43;;;;;;;34.03;33.02;98264.31;5113859;28;20050;-75
2022/06/19 09:35:25;;;;;;;11.70;4.07;;;;;;;33.99;33.46;98271.84;5114397;28;20054;-76
2022/06/19 09:37:58;;;;;;;14.43;4.18;;;;;;;34.00;33.31;98268.66;5114002;28;20047;-75
2022/06/19 09:40:29;;;;;;;18.13;4.43;;;;;;;34.19;33.06;98262.31;5113640;28;20048;-75
2022/06/19 09:43:02;;;;;;;13.50;4.13;;;;;;;34.22;33.47;98266.38;5112709;28;20051;-75
2022/06/19 09:45:35;;;;;;;16.63;4.55;;;;;;;34.21;32.45;98242.19;5113954;28;20058;-76
2022/06/19 09:48:17;;;;;;;11.63;4.82;;;;;;;34.25;30.80;98254.44;5114185;28;20047;-76
2022/06/19 09:50:49;;;;;;;12.98;4.28;;;;;;;34.35;33.29;98259.47;5114151;28;20109;-75
2022/06/19 09:53:26;;;;;;;12.05;4.07;;;;;;;34.42;29.90;98243.91;5113670;28;20052;-76
2022/06/19 09:55:59;;;;;;;7.22;4.30;;;;;;;34.66;31.30;98249.34;5112314;28;20467;-76
2022/06/19 09:58:34;;;;;;;17.52;5.03;;;;;;;34.70;29.39;98238.13;5113938;28;20058;-76
2022/06/19 10:01:03;;;;;;;17.83;4.45;;;;;;;35.04;28.92;98250.59;5113997;28;20048;-76
2022/06/19 10:03:35;;;;;;;;;;;;;;;34.94;29.51;98245.53;5113910;28;20048;-75
2022/06/19 10:06:09;;;;;;;20.65;4.80;;;;;;;34.70;29.52;98236.13;5113852;28;19919;-75
2022/06/19 10:08:43;;;;;;;13.43;4.32;;;;;;;35.07;27.49;98243.41;5113719;28;20533;-75
2022/06/19 10:11:13;;;;;;;14.13;4.55;;;;;;;35.08;28.21;98245.03;5112258;28;20414;-75
2022/06/19 10:13:48;;;;;;;14.48;4.40;;;;;;;35.11;28.53;98244.31;5113233;28;20066;-76
2022/06/19 10:16:20;;;;;;;9.80;4.03;;;;;;;35.33;28.02;98239.91;5112433;28;20044;-76
2022/06/19 10:18:51;;;;;;;15.27;4.30;;;;;;;35.54;27.53;98238.72;5114201;28;20051;-75
2022/06/19 10:24:18;;;;;;;14.27;3.92;;;;;;;35.74;26.48;98226.19;5117610;28;20054;-75
2022/06/19 10:26:50;;;;;;;12.98;4.22;;;;;;;35.86;26.01;98221.53;5117622;28;20055;-75
2022/06/19 10:29:32;;;;;;;14.75;4.05;;;;;;;36.00;24.77;98238.78;5116865;28;20047;-76
2022/06/19 10:32:12;;;;;;;15.02;3.22;;;;;;;35.87;24.19;98221.16;5117370;28;20514;-76
2022/06/19 10:34:53;;;;;;;10.88;3.67;;;;;;;35.89;23.81;98210.31;5116046;27;20047;-75
2022/06/19 10:37:33;;;;;;;11.45;4.28;;;;;;;35.73;23.45;98207.56;5117271;28;20055;-75
2022/06/19 10:40:14;;;;;;;12.20;3.97;;;;;;;35.86;24.76;98215.88;5116954;28;20047;-75
2022/06/19 10:42:50;;;;;;;18.17;4.20;;;;;;;35.86;24.34;98210.25;5116961;27;20555;-76
2022/06/19 10:45:32;;;;;;;12.95;3.50;;;;;;;36.07;23.63;98212.59;5116291;28;20048;-76
2022/06/19 10:48:24;;;;;;;12.43;3.25;;;;;;;36.03;23.36;98215.38;5113084;28;20058;-76
2022/06/19 10:51:00;;;;;;;11.20;3.40;;;;;;;36.07;24.50;98210.59;5123850;27;20478;-76
2022/06/19 10:53:40;;;;;;;12.48;4.47;;;;;;;36.20;23.63;98218.91;5136703;27;20047;-76
2022/06/19 10:56:16;;;;;;;9.32;3.15;;;;;;;36.13;23.42;98191.28;5137316;27;20058;-76
2022/06/19 10:58:45;;;;;;;15.43;4.00;;;;;;;36.33;23.67;98206.19;5137058;27;20077;-76
2022/06/19 11:04:06;;;;;;;10.93;3.25;;;;;;;36.13;23.54;98208.25;5115631;27;20052;-75
2022/06/19 11:04:08;;;;;;;15.80;3.28;;;;;;;36.03;24.10;98208.91;5116579;28;20122;-75
2022/06/19 11:06:41;;;;;;;9.15;3.88;;;;;;;36.31;23.36;98197.25;5116985;28;20074;-75
2022/06/19 11:09:14;;;;;;;7.53;3.47;;;;;;;36.32;24.14;98193.25;5116890;28;20044;-76
2022/06/19 11:11:43;;;;;;;7.88;3.55;;;;;;;36.77;24.04;98197.16;5116499;28;20051;-76
2022/06/19 11:14:12;;;;;;;9.77;3.67;;;;;;;36.66;24.23;98194.16;5114952;28;20498;-76
2022/06/19 11:16:55;;;;;;;8.43;3.45;;;;;;;36.83;23.72;98184.28;5116583;28;20044;-77
2022/06/19 11:19:41;;;;;;;11.30;3.70;;;;;;;36.55;23.91;98198.81;5116429;28;20055;-76
2022/06/19 11:22:32;;;;;;;10.07;3.55;;;;;;;36.47;24.41;98194.28;5116476;28;20058;-76
2022/06/19 11:25:27;;;;;;;9.85;4.25;;;;;;;36.05;24.25;98189.56;5116503;28;20047;-76
2022/06/19 11:27:58;;;;;;;8.68;3.30;;;;;;;36.27;23.88;98202.88;5115044;28;20565;-76
2022/06/19 11:30:30;;;;;;;9.80;3.58;;;;;;;36.19;22.90;98192.59;5095112;28;20048;-75
2022/06/19 11:32:57;;;;;;;10.30;3.38;;;;;;;36.37;23.46;98201.38;5095627;28;20503;-76
2022/06/19 11:35:24;;;;;;;7.60;2.97;;;;;;;36.44;24.65;98183.72;5096249;28;20044;-76
2022/06/19 11:37:56;;;;;;;16.45;3.40;;;;;;;36.56;23.62;98202.50;5096255;28;20054;-76
2022/06/19 11:40:30;;;;;;;13.50;3.85;;;;;;;36.58;23.20;98189.56;5094825;28;20052;-76
2022/06/19 11:42:59;;;;;;;9.20;3.72;;;;;;;37.04;23.10;98174.44;5106940;28;20491;-75
2022/06/19 11:45:29;;;;;;;16.42;3.97;;;;;;;36.91;22.75;98181.53;5095027;28;20083;-76
2022/06/19 11:48:01;;;;;;;10.73;3.20;;;;;;;36.80;22.98;98178.59;5095663;28;20067;-76